Air Navigation Services of Czech Republic
Airport: LKNA Updated:  22.05.2019 03:43:25  UTC
 SPECI LKNA 22.05. 03:24 ...
SPECI LKNA 220324Z 28011KT 6000 -RA FEW019 OVC060 12/11 Q1007 RMK WHT=
 TAF LKNA 21.05. 23:00 ...
TAF LKNA 212300Z 2200/2300 29008KT 9999 BKN030 24008KT      TEMPO 2204/2210 30014KT RA BKN020      TEMPO 2209/2218 31018G32KT 5000 SHRA BKN015TCU=